createdAt,value
2019-02-24T00:00:30.969Z,66.80
2019-02-24T00:03:03.138Z,66.83
2019-02-24T00:05:34.191Z,66.84
2019-02-24T00:08:04.869Z,66.69
2019-02-24T00:10:35.120Z,66.90
2019-02-24T00:13:05.381Z,66.64
2019-02-24T00:15:35.581Z,66.40
2019-02-24T00:18:05.758Z,66.15
2019-02-24T00:20:35.957Z,65.91
2019-02-24T00:23:07.335Z,65.88
2019-02-24T00:25:37.479Z,65.79
2019-02-24T00:28:07.676Z,65.69
2019-02-24T00:30:37.901Z,66.00
2019-02-24T00:33:08.042Z,65.95
2019-02-24T00:35:38.207Z,66.15
2019-02-24T00:38:08.385Z,66.17
2019-02-24T00:40:38.537Z,65.71
2019-02-24T00:43:09.817Z,65.66
2019-02-24T00:45:39.983Z,65.61
2019-02-24T00:48:10.233Z,65.56
2019-02-24T00:50:40.409Z,65.51
2019-02-24T00:53:12.038Z,65.31
2019-02-24T00:55:42.289Z,65.13
2019-02-24T00:58:16.195Z,65.16
2019-02-24T01:00:44.512Z,64.98
2019-02-24T01:03:14.757Z,65.09
2019-02-24T01:05:47.942Z,65.00
2019-02-24T01:08:21.020Z,65.10
2019-02-24T01:10:51.195Z,64.69
2019-02-24T01:13:21.385Z,64.52
2019-02-24T01:15:51.611Z,64.65
2019-02-24T01:18:21.893Z,64.47
2019-02-24T01:20:52.023Z,64.27
2019-02-24T01:23:22.217Z,64.17
2019-02-24T01:25:52.350Z,64.44
2019-02-24T01:28:25.209Z,64.13
2019-02-24T01:30:54.291Z,64.06
2019-02-24T01:33:24.509Z,64.72
2019-02-24T01:35:54.727Z,64.37
2019-02-24T01:38:24.965Z,64.43
2019-02-24T01:40:55.211Z,64.35
2019-02-24T01:43:25.399Z,64.26
2019-02-24T01:45:55.713Z,63.48
2019-02-24T01:48:25.873Z,63.64
2019-02-24T01:50:56.221Z,63.71
2019-02-24T01:53:26.452Z,63.58
2019-02-24T01:55:57.457Z,63.19
2019-02-24T01:58:34.949Z,63.04
2019-02-24T02:01:00.721Z,63.14
2019-02-24T02:03:30.859Z,62.48
2019-02-24T02:06:02.118Z,62.75
2019-02-24T02:08:33.570Z,62.94
2019-02-24T02:11:03.781Z,63.05
2019-02-24T02:13:33.990Z,63.43
2019-02-24T02:16:04.212Z,63.21
2019-02-24T02:18:34.382Z,63.13
2019-02-24T02:21:04.581Z,63.57
2019-02-24T02:23:34.727Z,63.18
2019-02-24T02:26:04.851Z,63.11
2019-02-24T02:28:43.616Z,62.73
2019-02-24T02:31:06.905Z,63.03
2019-02-24T02:33:37.074Z,62.94
2019-02-24T02:36:07.213Z,62.78
2019-02-24T02:38:37.362Z,62.87
2019-02-24T02:41:07.481Z,63.54
2019-02-24T02:43:37.709Z,63.76
2019-02-24T02:46:07.927Z,63.52
2019-02-24T02:48:38.109Z,63.48
2019-02-24T02:51:08.265Z,63.76
2019-02-24T02:53:38.541Z,63.47
2019-02-24T02:56:08.730Z,63.11
2019-02-24T02:58:39.846Z,63.85
2019-02-24T03:01:09.988Z,64.24
2019-02-24T03:03:40.421Z,63.66
2019-02-24T03:06:32.526Z,63.94
2019-02-24T03:09:03.234Z,64.25
2019-02-24T03:11:35.092Z,64.29
2019-02-24T03:14:05.362Z,64.09
2019-02-24T03:16:35.532Z,64.00
2019-02-24T03:19:05.752Z,64.26
2019-02-24T03:21:36.117Z,63.53
2019-02-24T03:24:06.280Z,63.84
2019-02-24T03:26:38.544Z,63.42
2019-02-24T03:29:08.705Z,63.13
2019-02-24T03:31:39.077Z,62.85
2019-02-24T03:34:09.267Z,62.41
2019-02-24T03:36:39.461Z,61.35
2019-02-24T03:39:09.618Z,61.49
2019-02-24T03:41:39.810Z,61.09
2019-02-24T03:44:09.963Z,61.16
2019-02-24T03:46:40.157Z,60.77
2019-02-24T03:49:10.371Z,60.77
2019-02-24T03:51:40.542Z,60.88
2019-02-24T03:54:10.730Z,60.41
2019-02-24T03:56:41.074Z,60.38
2019-02-24T03:59:15.083Z,60.21
2019-02-24T04:01:44.225Z,59.65
2019-02-24T04:04:14.546Z,59.19
2019-02-24T04:06:44.878Z,59.67
2019-02-24T04:09:14.978Z,60.44
2019-02-24T04:11:45.216Z,60.92
2019-02-24T04:14:15.334Z,60.97
2019-02-24T04:16:45.502Z,62.26
2019-02-24T04:19:15.657Z,61.70
2019-02-24T04:21:45.831Z,62.08
2019-02-24T04:24:16.038Z,62.21
2019-02-24T04:26:47.105Z,62.52
2019-02-24T04:29:24.608Z,62.60
2019-02-24T04:31:49.320Z,62.67
2019-02-24T04:34:19.505Z,62.45
2019-02-24T04:36:49.713Z,62.19
2019-02-24T04:39:19.895Z,62.01
2019-02-24T04:41:50.059Z,61.55
2019-02-24T04:44:23.160Z,62.64
2019-02-24T04:46:53.307Z,63.59
2019-02-24T04:49:23.547Z,62.95
2019-02-24T04:51:53.718Z,63.06
2019-02-24T04:54:23.933Z,63.67
2019-02-24T04:56:56.087Z,63.00
2019-02-24T04:59:34.789Z,63.49
2019-02-24T05:01:58.105Z,63.23
2019-02-24T05:04:28.370Z,63.58
2019-02-24T05:06:58.463Z,64.43
2019-02-24T05:09:28.717Z,64.23
2019-02-24T05:11:58.995Z,63.91
2019-02-24T05:14:29.323Z,63.35
2019-02-24T05:16:59.509Z,63.44
2019-02-24T05:19:29.729Z,64.42
2019-02-24T05:21:59.906Z,64.11
2019-02-24T05:24:30.189Z,64.81
2019-02-24T05:27:00.431Z,64.52
2019-02-24T05:29:33.632Z,64.71
2019-02-24T05:32:03.805Z,64.56
2019-02-24T05:34:33.939Z,64.24
2019-02-24T05:37:04.130Z,64.23
2019-02-24T05:39:34.413Z,64.47
2019-02-24T05:42:04.609Z,64.67
2019-02-24T05:44:34.859Z,64.51
2019-02-24T05:47:05.109Z,64.37
2019-02-24T05:49:35.407Z,65.28
2019-02-24T05:52:05.579Z,65.21
2019-02-24T05:54:36.745Z,64.89
2019-02-24T05:57:06.905Z,65.28
2019-02-24T05:59:37.043Z,65.08
2019-02-24T06:02:07.211Z,65.02
2019-02-24T06:04:37.351Z,64.60
2019-02-24T06:07:07.516Z,65.14
2019-02-24T06:09:37.753Z,65.06
2019-02-24T06:12:07.946Z,65.56
2019-02-24T06:14:38.093Z,65.77
2019-02-24T06:17:10.342Z,65.57
2019-02-24T06:19:42.913Z,65.43
2019-02-24T06:22:13.151Z,65.11
2019-02-24T06:24:43.354Z,64.94
2019-02-24T06:27:13.486Z,64.98
2019-02-24T06:29:43.610Z,64.50
2019-02-24T06:32:17.156Z,64.73
2019-02-24T06:34:49.970Z,64.39
2019-02-24T06:37:20.092Z,64.37
2019-02-24T06:39:50.294Z,65.43
2019-02-24T06:42:20.700Z,64.82
2019-02-24T06:44:51.974Z,64.64
2019-02-24T06:47:22.274Z,64.55
2019-02-24T06:49:52.502Z,65.16
2019-02-24T06:52:40.084Z,65.05
2019-02-24T06:55:18.670Z,64.97
2019-02-24T06:57:44.166Z,64.44
2019-02-24T07:00:14.522Z,64.31
2019-02-24T07:02:47.497Z,64.54
2019-02-24T07:05:17.662Z,64.25
2019-02-24T07:07:47.972Z,63.69
2019-02-24T07:10:20.440Z,63.51
2019-02-24T07:12:50.589Z,63.74
2019-02-24T07:15:22.734Z,63.23
2019-02-24T07:17:58.358Z,63.23
2019-02-24T07:20:29.539Z,62.89
2019-02-24T07:22:59.706Z,62.72
2019-02-24T07:25:29.840Z,62.26
2019-02-24T07:28:02.441Z,61.75
2019-02-24T07:30:32.544Z,61.87
2019-02-24T07:33:04.306Z,61.27
2019-02-24T07:35:34.439Z,61.05
2019-02-24T07:38:05.776Z,59.47
2019-02-24T07:40:35.910Z,58.02
2019-02-24T07:43:06.051Z,56.94
2019-02-24T07:45:36.322Z,56.52
2019-02-24T07:48:08.709Z,56.20
2019-02-24T07:50:38.867Z,55.25
2019-02-24T07:53:10.372Z,55.07
2019-02-24T07:55:40.546Z,54.60
2019-02-24T07:58:10.801Z,54.53
2019-02-24T08:00:41.016Z,53.94
2019-02-24T08:03:11.242Z,53.41
2019-02-24T08:05:41.391Z,52.87
2019-02-24T08:08:16.436Z,52.69
2019-02-24T08:10:44.096Z,51.93
2019-02-24T08:13:17.414Z,51.72
2019-02-24T08:15:48.886Z,51.94
2019-02-24T08:18:19.039Z,51.25
2019-02-24T08:20:49.255Z,50.95
2019-02-24T08:23:21.244Z,51.23
2019-02-24T08:25:51.442Z,50.58
2019-02-24T08:28:21.593Z,50.02
2019-02-24T08:30:53.659Z,49.33
2019-02-24T08:33:23.773Z,48.49
2019-02-24T08:35:53.987Z,48.27
2019-02-24T08:38:27.403Z,48.17
2019-02-24T08:41:01.210Z,47.91
2019-02-24T08:43:31.327Z,47.92
2019-02-24T08:46:01.500Z,47.67
2019-02-24T08:48:31.641Z,47.42
2019-02-24T08:51:04.606Z,46.62
2019-02-24T08:53:38.105Z,47.24
2019-02-24T08:56:08.350Z,46.46
2019-02-24T08:58:38.550Z,46.06
2019-02-24T09:01:08.716Z,45.69
2019-02-24T09:03:38.875Z,45.89
2019-02-24T09:06:09.001Z,45.62
2019-02-24T09:08:39.188Z,45.00
2019-02-24T09:11:10.576Z,44.72
2019-02-24T09:13:43.214Z,45.00
2019-02-24T09:16:13.623Z,44.80
2019-02-24T09:18:44.790Z,43.80
2019-02-24T09:21:14.979Z,44.03
2019-02-24T09:23:46.286Z,43.85
2019-02-24T09:26:16.417Z,43.69
2019-02-24T09:28:46.653Z,43.59
2019-02-24T09:31:16.885Z,42.82
2019-02-24T09:33:47.094Z,41.93
2019-02-24T09:36:17.195Z,42.55
2019-02-24T09:38:49.503Z,42.45
2019-02-24T09:41:26.644Z,42.13
2019-02-24T09:43:56.809Z,41.13
2019-02-24T09:46:28.242Z,40.34
2019-02-24T09:48:58.491Z,40.85
2019-02-24T09:51:29.464Z,40.35
2019-02-24T09:53:59.906Z,38.49
2019-02-24T09:56:32.789Z,38.79
2019-02-24T09:59:05.300Z,38.52
2019-02-24T10:01:35.504Z,38.44
2019-02-24T10:04:05.811Z,38.32
2019-02-24T10:06:36.026Z,38.61
2019-02-24T10:09:09.707Z,39.02
2019-02-24T10:11:45.845Z,37.71
2019-02-24T10:14:15.962Z,37.52
2019-02-24T10:16:46.284Z,36.15
2019-02-24T10:19:16.660Z,36.66
2019-02-24T10:21:48.902Z,36.63
2019-02-24T10:24:19.206Z,36.49
2019-02-24T10:26:49.348Z,35.12
2019-02-24T10:29:19.571Z,34.91
2019-02-24T10:31:55.140Z,33.27
2019-02-24T10:34:25.299Z,33.19
2019-02-24T10:36:56.477Z,32.83
2019-02-24T10:39:29.706Z,33.39
2019-02-24T10:41:59.693Z,33.28
2019-02-24T10:44:34.730Z,33.67
2019-02-24T10:47:05.349Z,35.62
2019-02-24T10:49:35.488Z,31.90
2019-02-24T10:52:05.610Z,30.79
2019-02-24T10:54:35.989Z,31.22
2019-02-24T10:57:09.770Z,31.24
2019-02-24T10:59:40.195Z,30.47
2019-02-24T11:02:12.672Z,30.13
2019-02-24T11:04:45.695Z,29.45
2019-02-24T11:07:15.884Z,28.55
2019-02-24T11:09:47.879Z,28.03
2019-02-24T11:12:23.176Z,28.46
2019-02-24T11:14:53.328Z,28.34
2019-02-24T11:17:23.551Z,29.24
2019-02-24T11:19:53.767Z,28.33
2019-02-24T11:22:28.826Z,27.52
2019-02-24T11:25:07.967Z,27.92
2019-02-24T11:27:38.346Z,27.83
2019-02-24T11:30:09.228Z,28.11
2019-02-24T11:32:39.715Z,28.47
2019-02-24T11:35:12.409Z,28.83
2019-02-24T11:37:44.720Z,28.05
2019-02-24T11:40:15.116Z,28.08
2019-02-24T11:42:47.105Z,28.50
2019-02-24T11:45:20.337Z,28.27
2019-02-24T11:47:50.462Z,27.35
2019-02-24T11:50:20.656Z,26.90
2019-02-24T11:52:50.820Z,27.55
2019-02-24T11:55:21.145Z,26.96
2019-02-24T11:57:51.323Z,27.35
2019-02-24T12:00:21.445Z,27.50
2019-02-24T12:02:56.731Z,26.01
2019-02-24T12:05:28.450Z,26.08
2019-02-24T12:07:58.630Z,25.68
2019-02-24T12:10:28.777Z,25.08
2019-02-24T12:13:02.622Z,25.28
2019-02-24T12:15:32.786Z,25.37
2019-02-24T12:18:03.087Z,24.44
2019-02-24T12:20:35.364Z,25.09
2019-02-24T12:23:07.918Z,25.60
2019-02-24T12:25:40.907Z,24.52
2019-02-24T12:28:11.153Z,22.97
2019-02-24T12:30:44.088Z,23.44
2019-02-24T12:33:16.151Z,23.19
2019-02-24T12:35:46.358Z,23.29
2019-02-24T12:38:16.499Z,24.30
2019-02-24T12:40:46.638Z,24.04
2019-02-24T12:43:16.798Z,24.22
2019-02-24T12:45:49.909Z,24.60
2019-02-24T12:48:25.494Z,24.80
2019-02-24T12:50:55.662Z,24.39
2019-02-24T12:53:29.181Z,23.24
2019-02-24T12:55:59.325Z,22.21
2019-02-24T12:58:29.527Z,21.96
2019-02-24T13:00:59.848Z,22.25
2019-02-24T13:03:32.277Z,21.63
2019-02-24T13:06:02.799Z,21.64
2019-02-24T13:08:35.201Z,20.75
2019-02-24T13:11:05.339Z,20.42
2019-02-24T13:13:35.544Z,21.17
2019-02-24T13:16:06.535Z,20.07
2019-02-24T13:18:36.960Z,20.77
2019-02-24T13:21:07.035Z,20.79
2019-02-24T13:23:37.264Z,19.87
2019-02-24T13:26:10.020Z,19.35
2019-02-24T13:28:50.118Z,20.47
2019-02-24T13:31:14.872Z,20.53
2019-02-24T13:33:45.575Z,20.89
2019-02-24T13:36:15.749Z,20.02
2019-02-24T13:38:45.974Z,20.04
2019-02-24T13:41:19.186Z,18.08
2019-02-24T13:43:49.340Z,17.72
2019-02-24T13:46:19.499Z,18.67
2019-02-24T13:48:49.671Z,16.87
2019-02-24T13:51:19.843Z,16.62
2019-02-24T13:53:55.594Z,17.03
2019-02-24T13:56:25.783Z,16.93
2019-02-24T13:58:57.168Z,16.55
2019-02-24T14:01:27.229Z,16.43
2019-02-24T14:03:57.367Z,16.29
2019-02-24T14:06:29.651Z,16.06
2019-02-24T14:09:03.036Z,16.69
2019-02-24T14:11:34.994Z,17.75
2019-02-24T14:14:05.222Z,17.08
2019-02-24T14:16:35.395Z,15.40
2019-02-24T14:19:05.626Z,15.64
2019-02-24T14:21:38.364Z,15.64
2019-02-24T14:24:08.522Z,14.92
2019-02-24T14:26:38.733Z,15.91
2019-02-24T14:29:08.918Z,16.20
2019-02-24T14:31:39.073Z,15.83
2019-02-24T14:34:14.134Z,16.59
2019-02-24T14:36:44.340Z,17.05
2019-02-24T14:39:14.783Z,16.11
2019-02-24T14:41:45.718Z,16.44
2019-02-24T14:44:19.614Z,16.23
2019-02-24T14:46:50.244Z,17.34
2019-02-24T14:49:20.524Z,19.61
2019-02-24T14:51:51.836Z,20.80
2019-02-24T14:54:22.196Z,18.33
2019-02-24T14:56:52.444Z,17.93
2019-02-24T14:59:22.764Z,19.22
2019-02-24T15:01:53.073Z,20.31
2019-02-24T15:04:23.321Z,20.52
2019-02-24T15:06:56.486Z,19.68
2019-02-24T15:09:27.071Z,17.14
2019-02-24T15:11:58.356Z,17.12
2019-02-24T15:14:28.452Z,17.43
2019-02-24T15:16:58.826Z,17.84
2019-02-24T15:19:29.425Z,17.71
2019-02-24T15:21:59.809Z,18.43
2019-02-24T15:24:30.238Z,23.77
2019-02-24T15:27:02.373Z,25.52
2019-02-24T15:29:36.057Z,25.00
2019-02-24T15:32:06.410Z,25.99
2019-02-24T15:34:37.857Z,28.67
2019-02-24T15:37:09.815Z,28.04
2019-02-24T15:39:43.245Z,27.91
2019-02-24T15:42:13.465Z,28.38
2019-02-24T15:44:47.065Z,29.32
2019-02-24T15:47:17.321Z,29.83
2019-02-24T15:49:47.586Z,30.38
2019-02-24T15:52:17.842Z,31.38
2019-02-24T15:54:48.098Z,31.57
2019-02-24T15:57:18.278Z,31.70
2019-02-24T15:59:48.912Z,31.55
2019-02-24T16:02:19.756Z,32.13
2019-02-24T16:04:50.259Z,31.67
2019-02-24T16:07:20.789Z,31.33
2019-02-24T16:09:51.216Z,31.34
2019-02-24T16:12:21.459Z,31.79
2019-02-24T16:14:51.695Z,31.59
2019-02-24T16:17:22.152Z,31.72
2019-02-24T16:19:53.390Z,31.69
2019-02-24T16:22:25.391Z,31.57
2019-02-24T16:24:56.607Z,31.85
2019-02-24T16:27:28.521Z,32.47
2019-02-24T16:29:59.115Z,29.01
2019-02-24T16:32:31.886Z,28.37
2019-02-24T16:35:04.792Z,28.69
2019-02-24T16:37:35.073Z,29.41
2019-02-24T16:40:09.005Z,32.40
2019-02-24T16:42:47.398Z,32.77
2019-02-24T16:45:19.098Z,33.63
2019-02-24T16:47:49.424Z,34.31
2019-02-24T16:50:24.433Z,34.79
2019-02-24T16:52:58.930Z,35.36
2019-02-24T16:55:29.536Z,36.00
2019-02-24T16:58:07.855Z,36.75
2019-02-24T17:00:39.895Z,36.58
2019-02-24T17:03:19.703Z,37.22
2019-02-24T17:05:44.630Z,37.56
2019-02-24T17:08:19.722Z,38.02
2019-02-24T17:10:52.195Z,38.13
2019-02-24T17:13:22.646Z,38.42
2019-02-24T17:15:53.220Z,38.82
2019-02-24T17:18:23.666Z,39.07
2019-02-24T17:20:54.013Z,39.14
2019-02-24T17:23:25.742Z,39.84
2019-02-24T17:25:56.220Z,40.50
2019-02-24T17:28:30.289Z,40.77
2019-02-24T17:31:02.005Z,40.68
2019-02-24T17:33:33.600Z,40.96
2019-02-24T17:36:07.672Z,41.68
2019-02-24T17:38:38.104Z,41.67
2019-02-24T17:41:08.554Z,41.77
2019-02-24T17:43:38.714Z,41.74
2019-02-24T17:46:11.291Z,41.90
2019-02-24T17:48:41.609Z,42.08
2019-02-24T17:51:20.866Z,42.51
2019-02-24T17:53:46.743Z,42.63
2019-02-24T17:56:20.052Z,43.12
2019-02-24T17:58:51.581Z,43.16
2019-02-24T18:01:23.154Z,43.00
2019-02-24T18:03:54.637Z,43.17
2019-02-24T18:06:27.638Z,43.63
2019-02-24T18:08:58.222Z,43.63
2019-02-24T18:11:28.686Z,44.31
2019-02-24T18:13:59.139Z,44.52
2019-02-24T18:16:29.449Z,44.41
2019-02-24T18:18:59.868Z,44.93
2019-02-24T18:21:30.209Z,45.08
2019-02-24T18:24:01.291Z,45.05
2019-02-24T18:26:31.775Z,44.96
2019-02-24T18:29:02.173Z,45.01
2019-02-24T18:32:08.260Z,44.99
2019-02-24T18:34:40.986Z,45.57
2019-02-24T18:37:11.385Z,45.92
2019-02-24T18:39:41.602Z,46.33
2019-02-24T18:42:13.471Z,45.95
2019-02-24T18:44:43.585Z,46.15
2019-02-24T18:47:14.950Z,46.67
2019-02-24T18:49:45.112Z,46.80
2019-02-24T18:52:15.361Z,46.96
2019-02-24T18:55:20.334Z,46.93
2019-02-24T18:57:52.255Z,47.04
2019-02-24T19:00:27.020Z,47.11
2019-02-24T19:02:57.431Z,47.52
2019-02-24T19:05:27.623Z,47.50
2019-02-24T19:07:57.935Z,47.85
2019-02-24T19:10:33.635Z,47.91
2019-02-24T19:13:04.381Z,48.15
2019-02-24T19:15:34.490Z,48.71
2019-02-24T19:18:04.781Z,48.30
2019-02-24T19:20:36.101Z,48.23
2019-02-24T19:23:06.615Z,48.60
2019-02-24T19:25:37.331Z,48.82
2019-02-24T19:28:07.508Z,48.55
2019-02-24T19:30:37.981Z,48.60
2019-02-24T19:33:08.421Z,48.96
2019-02-24T19:35:38.562Z,49.43
2019-02-24T19:38:08.917Z,49.30
2019-02-24T19:40:43.819Z,49.66
2019-02-24T19:43:16.840Z,49.63
2019-02-24T19:45:47.148Z,49.56
2019-02-24T19:48:17.438Z,50.53
2019-02-24T19:50:47.733Z,50.76
2019-02-24T19:53:26.872Z,51.29
2019-02-24T19:56:03.762Z,50.73
2019-02-24T20:06:33.391Z,50.64
2019-02-24T20:09:03.873Z,50.50
2019-02-24T20:11:42.546Z,50.39
2019-02-24T20:14:13.098Z,50.19
2019-02-24T20:16:46.340Z,50.24
2019-02-24T20:19:21.687Z,50.70
2019-02-24T20:21:59.019Z,50.66
2019-02-24T20:24:34.384Z,50.60
2019-02-24T20:27:07.357Z,51.06
2019-02-24T20:29:39.477Z,51.49
2019-02-24T20:32:09.813Z,51.29
2019-02-24T20:34:43.013Z,51.45
2019-02-24T20:37:13.316Z,51.59
2019-02-24T20:39:43.542Z,51.52
2019-02-24T20:42:17.345Z,52.43
2019-02-24T20:44:49.068Z,52.03
2019-02-24T20:47:19.448Z,52.22
2019-02-24T20:49:49.701Z,52.55
2019-02-24T20:52:19.902Z,52.48
2019-02-24T20:54:50.159Z,53.04
2019-02-24T20:57:20.408Z,53.16
2019-02-24T20:59:50.923Z,52.73
2019-02-24T21:02:21.228Z,53.50
2019-02-24T21:04:51.418Z,53.95
2019-02-24T21:07:21.625Z,53.74
2019-02-24T21:09:53.925Z,53.73
2019-02-24T21:12:24.279Z,53.42
2019-02-24T21:14:54.651Z,53.74
2019-02-24T21:17:26.117Z,53.92
2019-02-24T21:19:58.797Z,54.36
2019-02-24T21:22:29.391Z,54.16
2019-02-24T21:25:00.006Z,54.16
2019-02-24T21:27:30.529Z,53.97
2019-02-24T21:30:03.909Z,54.59
2019-02-24T21:32:35.725Z,54.69
2019-02-24T21:35:06.845Z,54.43
2019-02-24T21:37:37.488Z,54.78
2019-02-24T21:40:08.058Z,54.06
2019-02-24T21:42:38.818Z,54.12
2019-02-24T21:45:12.103Z,54.59
2019-02-24T21:47:42.943Z,54.95
2019-02-24T21:50:14.356Z,54.86
2019-02-24T21:52:44.891Z,55.82
2019-02-24T21:55:15.001Z,55.68
2019-02-24T21:57:46.058Z,55.24
2019-02-24T22:00:18.892Z,55.35
2019-02-24T22:02:49.219Z,55.55
2019-02-24T22:05:21.680Z,55.98
2019-02-24T22:07:55.684Z,56.75
2019-02-24T22:10:29.751Z,57.26
2019-02-24T22:12:59.593Z,56.56
2019-02-24T22:15:31.459Z,55.76
2019-02-24T22:18:02.459Z,55.99
2019-02-24T22:20:32.583Z,55.87
2019-02-24T22:23:05.083Z,56.37
2019-02-24T22:25:35.201Z,56.86
2019-02-24T22:28:06.538Z,56.82
2019-02-24T22:30:36.751Z,56.92
2019-02-24T22:33:06.954Z,56.91
2019-02-24T22:35:38.353Z,56.68
2019-02-24T22:38:10.353Z,56.88
2019-02-24T22:40:40.568Z,56.79
2019-02-24T22:43:10.812Z,57.14
2019-02-24T22:45:40.992Z,57.03
2019-02-24T22:48:11.144Z,56.96
2019-02-24T22:50:41.301Z,57.05
2019-02-24T22:53:11.443Z,56.97
2019-02-24T22:55:42.382Z,57.62
2019-02-24T22:58:12.630Z,57.31
2019-02-24T23:00:57.435Z,56.87
2019-02-24T23:03:31.670Z,56.97
2019-02-24T23:06:01.824Z,57.75
2019-02-24T23:08:33.340Z,57.42
2019-02-24T23:11:05.487Z,57.54
2019-02-24T23:13:36.434Z,57.37
2019-02-24T23:16:06.798Z,57.85
2019-02-24T23:18:37.346Z,57.64
2019-02-24T23:21:07.492Z,57.71
2019-02-24T23:23:37.764Z,57.46
2019-02-24T23:26:07.986Z,57.78
2019-02-24T23:28:38.208Z,57.54
2019-02-24T23:31:08.338Z,57.78
2019-02-24T23:33:38.496Z,57.91
2019-02-24T23:36:08.758Z,58.24
2019-02-24T23:38:38.920Z,58.00
2019-02-24T23:41:09.298Z,57.22
2019-02-24T23:43:39.387Z,56.80
2019-02-24T23:46:09.530Z,56.64
2019-02-24T23:48:42.010Z,56.75
2019-02-24T23:51:12.186Z,57.07
2019-02-24T23:53:43.378Z,57.02
2019-02-24T23:56:13.662Z,57.58
2019-02-24T23:58:43.812Z,57.42
